Arbovale, WV (24915)

4:14 AM EDT on August 28, 2015 (GMT -0400)
Silver Creek | | Change Station
CLOSE
Current Station
Personal Weather Station
Location: Snowshoe, WV
Elevation: 4462 ft
Nearby Weather Stations

Elev 4462 ft 38.44 °N, 79.99 °W | Updated 0 second ago

Overcast
Overcast
51.8 °F
Feels Like 51.8 °F
N
4.0
Wind Variable Wind from ESE
Gusts 6.0 mph

Today
High -- | Low -- °F
--% Chance of Precip.
Yesterday
High -- | Low -- °F
Precip. -- in
6:44 AM 7:55 PM
Waxing Gibbous, 97% visible
Pressure 30.24 in
Visibility 10.0 miles
Clouds Mostly Cloudy 1600 ft
Overcast 2300 ft
Dew Point 50 °F
Humidity 93%
Rainfall 0.00 in
Snow Depth Not available.
UV 0 out of 12
Pollen 8.70 out of 12
Air Quality Not available.
Flu Activity Not available.
METAR KHSP 280750Z AUTO 08005KT 10SM BKN016 OVC023 14/12 A3024 RMK AO2 T01400116
Pressure 30.24 in
Visibility 10.0 miles
Clouds Mostly Cloudy 1600 ft
Overcast 2300 ft
Dew Point 50 °F
Humidity 93%
Rainfall 0.00 in
Snow Depth Not available.
UV 0 out of 12
Pollen 8.70 out of 12
Air Quality Not available.
Flu Activity Not available.
METAR KHSP 280750Z AUTO 08005KT 10SM BKN016 OVC023 14/12 A3024 RMK AO2 T01400116

10-Day Weather Forecast

×

Almanac

Astronomy

Aug. 28, 2015 Rise Set
Actual Time
Civil Twilight
Nautical Twilight
Astronomical Twilight
Moon
Length of Visible Light
Length of Day
Tomorrow will be .
, % of the Moon is Illuminated

Today's Extremes

State Highs State Lows

Community

WunderPhotos

Upload Photos

1,850,348 photos uploaded!

WunderBlogs® & News

Nearby

Air Quality

  Air Quality AQ Index Pollutant
Not available.

Snow Depth

Station Depth Elevation

Earthquake Activity

City Distance Mag. Time & Date
Minimum magnitude displayed is 2.5.

Coastal Water Temperatures

Place Temperature

Stations

Nearby Weather Stations

Station Location Temp. Windchill Dew Point Humidity Wind Precip. Elev Updated Type